createdAt,value
2018-08-17T00:01:30.033Z,99.90
2018-08-17T00:03:57.503Z,99.90
2018-08-17T00:06:24.839Z,99.90
2018-08-17T00:08:52.210Z,99.90
2018-08-17T00:11:19.555Z,99.90
2018-08-17T00:13:47.032Z,99.90
2018-08-17T00:16:14.359Z,99.90
2018-08-17T00:18:41.745Z,99.90
2018-08-17T00:21:09.067Z,99.90
2018-08-17T00:23:36.461Z,99.90
2018-08-17T00:26:03.814Z,99.90
2018-08-17T00:28:31.139Z,99.90
2018-08-17T00:30:58.623Z,99.90
2018-08-17T00:33:25.959Z,99.90
2018-08-17T00:35:53.403Z,99.90
2018-08-17T00:38:20.771Z,99.90
2018-08-17T00:40:48.155Z,99.90
2018-08-17T00:43:15.510Z,99.90
2018-08-17T00:45:42.944Z,99.90
2018-08-17T00:48:10.559Z,99.90
2018-08-17T00:50:37.865Z,99.90
2018-08-17T00:53:05.357Z,99.90
2018-08-17T00:55:32.720Z,99.90
2018-08-17T00:58:00.064Z,99.90
2018-08-17T01:00:27.520Z,99.90
2018-08-17T01:02:54.852Z,99.90
2018-08-17T01:05:22.235Z,99.90
2018-08-17T01:07:49.561Z,99.90
2018-08-17T01:10:17.143Z,99.90
2018-08-17T01:12:44.477Z,99.90
2018-08-17T01:15:11.865Z,99.90
2018-08-17T01:17:39.395Z,99.90
2018-08-17T01:20:07.591Z,99.90
2018-08-17T01:22:34.944Z,99.90
2018-08-17T01:25:02.422Z,99.90
2018-08-17T01:27:29.754Z,99.90
2018-08-17T01:29:57.214Z,99.90
2018-08-17T01:32:24.558Z,99.90
2018-08-17T01:34:52.035Z,99.90
2018-08-17T01:37:19.372Z,99.90
2018-08-17T01:39:46.951Z,99.90
2018-08-17T01:42:14.334Z,99.90
2018-08-17T01:44:41.649Z,99.90
2018-08-17T01:47:09.129Z,99.90
2018-08-17T01:49:36.462Z,99.90
2018-08-17T01:52:03.948Z,99.90
2018-08-17T01:54:31.268Z,99.90
2018-08-17T01:56:58.653Z,99.90
2018-08-17T01:59:26.011Z,99.90
2018-08-17T02:01:53.339Z,99.90
2018-08-17T02:04:20.729Z,99.90
2018-08-17T02:06:48.152Z,99.90
2018-08-17T02:09:15.551Z,99.90
2018-08-17T02:11:42.866Z,99.90
2018-08-17T02:14:10.458Z,99.90
2018-08-17T02:16:38.295Z,99.90
2018-08-17T02:19:05.688Z,99.90
2018-08-17T02:21:33.141Z,99.90
2018-08-17T02:24:00.588Z,99.90
2018-08-17T02:26:27.955Z,99.90
2018-08-17T02:28:55.286Z,99.90
2018-08-17T02:31:22.670Z,99.90
2018-08-17T02:33:50.000Z,99.90
2018-08-17T02:36:17.371Z,99.90
2018-08-17T02:38:44.739Z,99.90
2018-08-17T02:41:22.349Z,99.90
2018-08-17T02:43:52.025Z,99.90
2018-08-17T02:46:21.579Z,99.90
2018-08-17T02:48:51.184Z,99.90
2018-08-17T02:51:20.645Z,99.90
2018-08-17T02:53:50.344Z,99.90
2018-08-17T02:56:25.835Z,99.90
2018-08-17T02:58:55.545Z,99.90
2018-08-17T03:01:25.006Z,99.90
2018-08-17T03:03:52.399Z,99.90
2018-08-17T03:06:19.748Z,99.90
2018-08-17T03:08:47.088Z,99.90
2018-08-17T03:11:14.572Z,99.90
2018-08-17T03:13:41.895Z,99.90
2018-08-17T03:16:09.291Z,99.90
2018-08-17T03:18:36.609Z,99.90
2018-08-17T03:21:04.091Z,99.90
2018-08-17T03:23:31.426Z,99.90
2018-08-17T03:25:58.813Z,99.90
2018-08-17T03:28:26.190Z,99.90
2018-08-17T03:30:53.546Z,99.90
2018-08-17T03:33:20.953Z,99.90
2018-08-17T03:35:48.545Z,99.90
2018-08-17T03:38:16.073Z,99.90
2018-08-17T03:40:43.323Z,99.90
2018-08-17T03:43:10.704Z,99.90
2018-08-17T03:45:37.945Z,99.90
2018-08-17T03:48:05.513Z,99.90
2018-08-17T03:50:32.861Z,99.90
2018-08-17T03:53:00.342Z,99.90
2018-08-17T03:55:27.860Z,99.90
2018-08-17T03:57:55.256Z,99.90
2018-08-17T04:00:22.583Z,99.90
2018-08-17T04:02:49.972Z,99.90
2018-08-17T04:05:17.422Z,99.90
2018-08-17T04:07:44.884Z,99.90
2018-08-17T04:10:12.234Z,99.90
2018-08-17T04:12:39.709Z,99.90
2018-08-17T04:15:07.860Z,99.90
2018-08-17T04:17:35.252Z,99.90
2018-08-17T04:20:02.667Z,99.90
2018-08-17T04:22:30.018Z,99.90
2018-08-17T04:24:57.459Z,99.90
2018-08-17T04:27:24.854Z,99.90
2018-08-17T04:29:52.228Z,99.90
2018-08-17T04:32:19.607Z,99.90
2018-08-17T04:34:46.909Z,99.90
2018-08-17T04:37:14.411Z,99.90
2018-08-17T04:39:41.918Z,99.90
2018-08-17T04:42:09.305Z,99.90
2018-08-17T04:44:36.636Z,99.90
2018-08-17T04:47:04.007Z,99.90
2018-08-17T04:49:31.464Z,99.90
2018-08-17T04:51:58.946Z,99.90
2018-08-17T04:54:26.274Z,99.90
2018-08-17T04:56:53.755Z,99.90
2018-08-17T04:59:21.103Z,99.90
2018-08-17T05:01:48.452Z,99.90
2018-08-17T05:04:15.819Z,99.90
2018-08-17T05:06:43.257Z,99.90
2018-08-17T05:09:10.632Z,99.90
2018-08-17T05:11:38.070Z,99.90
2018-08-17T05:14:05.443Z,99.90
2018-08-17T05:16:32.907Z,99.90
2018-08-17T05:19:00.284Z,99.90
2018-08-17T05:21:27.644Z,99.90
2018-08-17T05:23:54.961Z,99.90
2018-08-17T05:26:22.335Z,99.90
2018-08-17T05:28:49.692Z,99.90
2018-08-17T05:31:17.018Z,99.90
2018-08-17T05:33:44.403Z,99.90
2018-08-17T05:36:11.739Z,99.90
2018-08-17T05:38:39.216Z,99.90
2018-08-17T05:41:06.634Z,99.90
2018-08-17T05:43:33.937Z,99.90
2018-08-17T05:46:01.258Z,99.90
2018-08-17T05:48:28.648Z,99.90
2018-08-17T05:50:55.980Z,99.90
2018-08-17T05:53:23.363Z,99.90
2018-08-17T05:55:50.707Z,99.90
2018-08-17T05:58:18.079Z,99.90
2018-08-17T06:00:45.542Z,99.90
2018-08-17T06:03:12.867Z,99.90
2018-08-17T06:05:40.339Z,99.90
2018-08-17T06:08:07.811Z,99.90
2018-08-17T06:10:35.173Z,99.90
2018-08-17T06:13:02.597Z,99.90
2018-08-17T06:15:29.872Z,99.90
2018-08-17T06:17:57.217Z,99.90
2018-08-17T06:20:24.588Z,99.90
2018-08-17T06:22:51.911Z,99.90
2018-08-17T06:25:19.292Z,99.90
2018-08-17T06:27:46.624Z,99.90
2018-08-17T06:30:14.110Z,99.90
2018-08-17T06:32:41.869Z,99.90
2018-08-17T06:35:10.227Z,99.90
2018-08-17T06:37:38.439Z,99.90
2018-08-17T06:40:06.372Z,99.90
2018-08-17T06:42:33.757Z,99.90
2018-08-17T06:45:01.505Z,99.90
2018-08-17T06:47:29.301Z,99.90
2018-08-17T06:49:56.629Z,99.90
2018-08-17T06:52:24.010Z,99.90
2018-08-17T06:54:51.328Z,99.90
2018-08-17T06:57:18.611Z,99.90
2018-08-17T06:59:45.861Z,99.90
2018-08-17T07:02:13.068Z,99.90
2018-08-17T07:04:40.313Z,99.90
2018-08-17T07:07:07.593Z,99.90
2018-08-17T07:09:34.974Z,99.90
2018-08-17T07:12:02.151Z,99.90
2018-08-17T07:14:29.363Z,99.90
2018-08-17T07:16:56.615Z,99.90
2018-08-17T07:19:23.823Z,99.90
2018-08-17T07:21:51.087Z,99.90
2018-08-17T07:24:18.361Z,99.90
2018-08-17T07:26:45.594Z,99.90
2018-08-17T07:29:12.852Z,99.90
2018-08-17T07:31:40.052Z,99.90
2018-08-17T07:34:07.335Z,99.90
2018-08-17T07:36:34.541Z,99.90
2018-08-17T07:39:01.831Z,99.90
2018-08-17T07:41:29.067Z,99.90
2018-08-17T07:43:56.321Z,99.90
2018-08-17T07:46:23.547Z,99.90
2018-08-17T07:48:50.766Z,99.90
2018-08-17T07:51:17.999Z,99.90
2018-08-17T07:53:45.215Z,99.90
2018-08-17T07:56:12.480Z,99.90
2018-08-17T07:58:39.688Z,99.90
2018-08-17T08:01:06.936Z,99.90
2018-08-17T08:03:34.179Z,99.90
2018-08-17T08:06:01.421Z,99.90
2018-08-17T08:08:28.642Z,99.90
2018-08-17T08:10:55.922Z,99.90
2018-08-17T08:13:23.149Z,99.90
2018-08-17T08:15:50.371Z,99.90
2018-08-17T08:18:17.631Z,99.90
2018-08-17T08:20:46.858Z,99.90
2018-08-17T08:23:21.716Z,99.90
2018-08-17T08:25:49.072Z,99.90
2018-08-17T08:28:16.504Z,99.90
2018-08-17T08:30:43.878Z,99.90
2018-08-17T08:33:11.328Z,99.90
2018-08-17T08:35:38.705Z,99.90
2018-08-17T08:38:06.038Z,99.90
2018-08-17T08:40:33.506Z,99.90
2018-08-17T08:43:00.838Z,99.90
2018-08-17T08:45:28.256Z,99.90
2018-08-17T08:47:55.589Z,99.90
2018-08-17T08:50:23.023Z,99.90
2018-08-17T08:52:50.499Z,99.90
2018-08-17T08:58:25.097Z,99.90
2018-08-17T09:00:52.335Z,99.90
2018-08-17T09:03:19.543Z,99.90
2018-08-17T09:05:46.782Z,99.90
2018-08-17T09:08:14.001Z,99.90
2018-08-17T09:10:41.241Z,99.90
2018-08-17T09:13:08.469Z,99.90
2018-08-17T09:15:35.704Z,99.90
2018-08-17T09:18:02.968Z,99.90
2018-08-17T09:20:30.204Z,99.90
2018-08-17T09:22:57.472Z,99.90
2018-08-17T09:25:24.725Z,99.90
2018-08-17T09:27:51.967Z,99.90
2018-08-17T09:30:19.288Z,99.90
2018-08-17T09:32:46.456Z,99.90
2018-08-17T09:35:13.788Z,99.90
2018-08-17T09:37:41.039Z,99.90
2018-08-17T09:40:09.127Z,99.90
2018-08-17T09:42:36.564Z,99.90
2018-08-17T09:45:03.961Z,99.90
2018-08-17T09:47:31.248Z,99.90
2018-08-17T09:49:58.739Z,98.20
2018-08-17T09:52:25.963Z,98.20
2018-08-17T09:54:53.544Z,98.60
2018-08-17T09:57:20.784Z,97.90
2018-08-17T09:59:48.023Z,97.20
2018-08-17T10:02:20.812Z,96.90
2018-08-17T10:04:53.595Z,97.20
2018-08-17T10:07:26.381Z,94.70
2018-08-17T10:09:54.650Z,95.30
2018-08-17T10:12:21.992Z,94.00
2018-08-17T10:14:49.258Z,93.30
2018-08-17T10:17:16.488Z,93.00
2018-08-17T10:19:43.699Z,93.20
2018-08-17T10:22:11.152Z,92.40
2018-08-17T10:24:38.203Z,94.50
2018-08-17T10:27:05.460Z,92.80
2018-08-17T10:29:32.674Z,93.00
2018-08-17T10:31:59.904Z,92.10
2018-08-17T10:34:27.110Z,92.40
2018-08-17T10:36:54.409Z,92.00
2018-08-17T10:39:21.627Z,91.50
2018-08-17T10:41:48.867Z,91.00
2018-08-17T10:44:16.115Z,90.60
2018-08-17T10:46:43.350Z,91.50
2018-08-17T10:49:11.051Z,91.70
2018-08-17T10:51:38.515Z,91.00
2018-08-17T10:54:05.812Z,91.80
2018-08-17T10:56:33.248Z,91.10
2018-08-17T10:59:00.487Z,90.40
2018-08-17T11:01:27.710Z,90.50
2018-08-17T11:03:54.942Z,90.80
2018-08-17T11:06:22.183Z,90.00
2018-08-17T11:08:49.388Z,87.40
2018-08-17T11:11:16.622Z,87.80
2018-08-17T11:13:43.827Z,86.80
2018-08-17T11:16:11.135Z,90.40
2018-08-17T11:18:38.344Z,87.50
2018-08-17T11:21:05.610Z,85.50
2018-08-17T11:23:32.869Z,90.10
2018-08-17T11:26:00.239Z,87.70
2018-08-17T11:28:27.612Z,88.30
2018-08-17T11:30:54.963Z,87.70
2018-08-17T11:33:22.926Z,86.90
2018-08-17T11:35:50.191Z,83.60
2018-08-17T11:38:17.644Z,85.00
2018-08-17T11:40:45.892Z,83.80
2018-08-17T11:43:13.288Z,83.80
2018-08-17T11:45:42.963Z,83.60
2018-08-17T11:48:11.483Z,84.40
2018-08-17T11:50:38.751Z,83.60
2018-08-17T11:53:05.983Z,85.10
2018-08-17T11:55:33.778Z,88.00
2018-08-17T11:58:00.992Z,82.40
2018-08-17T12:00:33.142Z,88.10
2018-08-17T12:03:00.356Z,84.50
2018-08-17T12:05:27.606Z,83.00
2018-08-17T12:07:54.820Z,83.10
2018-08-17T12:10:22.056Z,82.60
2018-08-17T12:12:49.303Z,81.90
2018-08-17T12:15:17.297Z,85.50
2018-08-17T12:17:45.393Z,82.00
2018-08-17T12:20:13.550Z,81.20
2018-08-17T12:22:41.618Z,86.10
2018-08-17T12:25:10.350Z,80.70
2018-08-17T12:27:39.933Z,80.60
2018-08-17T12:30:08.808Z,81.80
2018-08-17T12:32:36.873Z,80.30
2018-08-17T12:35:05.047Z,79.60
2018-08-17T12:37:33.155Z,78.70
2018-08-17T12:40:01.244Z,79.70
2018-08-17T12:42:29.488Z,78.50
2018-08-17T12:45:02.362Z,81.90
2018-08-17T12:47:31.087Z,80.40
2018-08-17T12:49:59.137Z,83.00
2018-08-17T12:52:27.258Z,79.90
2018-08-17T12:54:55.287Z,78.90
2018-08-17T12:57:27.768Z,79.50
2018-08-17T12:59:55.886Z,78.70
2018-08-17T13:02:23.909Z,79.60
2018-08-17T13:04:51.991Z,81.20
2018-08-17T13:07:20.055Z,79.40
2018-08-17T13:09:51.759Z,80.90
2018-08-17T13:12:19.651Z,79.80
2018-08-17T13:14:47.753Z,82.80
2018-08-17T13:17:15.717Z,80.30
2018-08-17T13:19:43.576Z,80.50
2018-08-17T13:22:11.473Z,80.30
2018-08-17T13:24:39.397Z,80.00
2018-08-17T13:27:07.282Z,78.10
2018-08-17T13:29:35.181Z,80.30
2018-08-17T13:32:03.085Z,80.20
2018-08-17T13:34:30.989Z,77.00
2018-08-17T13:36:58.887Z,77.30
2018-08-17T13:39:26.968Z,78.30
2018-08-17T13:41:54.873Z,78.20
2018-08-17T13:44:22.791Z,76.70
2018-08-17T13:46:50.725Z,73.90
2018-08-17T13:49:18.820Z,77.50
2018-08-17T13:51:46.913Z,76.70
2018-08-17T13:54:15.069Z,74.40
2018-08-17T13:56:43.301Z,75.30
2018-08-17T13:59:11.338Z,77.30
2018-08-17T14:01:39.386Z,76.60
2018-08-17T14:04:07.492Z,77.00
2018-08-17T14:06:35.533Z,76.30
2018-08-17T14:09:04.645Z,76.20
2018-08-17T14:11:32.718Z,76.20
2018-08-17T14:14:00.773Z,77.60
2018-08-17T14:16:28.961Z,76.90
2018-08-17T14:18:57.064Z,74.50
2018-08-17T14:21:25.076Z,77.20
2018-08-17T14:23:53.070Z,75.20
2018-08-17T14:26:22.397Z,74.90
2018-08-17T14:28:50.537Z,74.40
2018-08-17T14:31:18.516Z,74.40
2018-08-17T14:33:46.621Z,73.40
2018-08-17T14:36:14.678Z,74.40
2018-08-17T14:38:42.861Z,74.30
2018-08-17T14:41:10.937Z,75.80
2018-08-17T14:43:39.127Z,74.20
2018-08-17T14:46:07.359Z,74.80
2018-08-17T14:48:35.362Z,75.70
2018-08-17T14:51:03.427Z,74.60
2018-08-17T14:53:31.488Z,72.70
2018-08-17T14:55:59.664Z,72.80
2018-08-17T14:58:34.465Z,73.90
2018-08-17T15:01:02.619Z,73.90
2018-08-17T15:03:30.863Z,75.60
2018-08-17T15:05:58.914Z,73.60
2018-08-17T15:08:27.049Z,72.60
2018-08-17T15:10:55.074Z,75.20
2018-08-17T15:13:23.327Z,75.30
2018-08-17T15:15:51.421Z,74.70
2018-08-17T15:18:19.581Z,74.70
2018-08-17T15:20:47.715Z,73.70
2018-08-17T15:23:15.749Z,74.80
2018-08-17T15:25:43.828Z,76.80
2018-08-17T15:28:11.904Z,75.30
2018-08-17T15:30:40.643Z,73.60
2018-08-17T15:33:08.870Z,77.00
2018-08-17T15:35:36.929Z,71.50
2018-08-17T15:38:05.141Z,75.50
2018-08-17T15:40:33.272Z,73.70
2018-08-17T15:43:09.863Z,76.30
2018-08-17T15:45:38.130Z,76.90
2018-08-17T15:48:06.211Z,75.80
2018-08-17T15:50:34.275Z,73.90
2018-08-17T15:53:02.377Z,75.70
2018-08-17T15:55:30.522Z,71.70
2018-08-17T15:57:58.652Z,70.90
2018-08-17T16:00:26.698Z,71.50
2018-08-17T16:02:54.931Z,72.20
2018-08-17T16:05:23.147Z,73.40
2018-08-17T16:07:51.342Z,73.50
2018-08-17T16:13:22.976Z,71.40
2018-08-17T16:15:51.061Z,73.70
2018-08-17T16:18:19.153Z,75.40
2018-08-17T16:20:47.202Z,75.40
2018-08-17T16:23:15.502Z,74.00
2018-08-17T16:25:43.577Z,76.90
2018-08-17T16:28:11.645Z,75.60
2018-08-17T16:30:39.887Z,75.10
2018-08-17T16:33:08.292Z,73.70
2018-08-17T16:35:36.467Z,73.50
2018-08-17T16:38:04.940Z,74.50
2018-08-17T16:40:37.495Z,76.50
2018-08-17T16:43:05.785Z,77.60
2018-08-17T16:45:33.889Z,77.00
2018-08-17T16:48:02.065Z,74.90
2018-08-17T16:50:30.163Z,76.00
2018-08-17T16:52:58.195Z,78.00
2018-08-17T16:55:26.286Z,78.50
2018-08-17T16:57:54.322Z,76.80
2018-08-17T17:00:22.499Z,77.30
2018-08-17T17:02:50.603Z,77.70
2018-08-17T17:05:18.665Z,76.70
2018-08-17T17:07:46.748Z,73.20
2018-08-17T17:10:14.904Z,73.90
2018-08-17T17:12:43.127Z,71.60
2018-08-17T17:15:16.572Z,68.50
2018-08-17T17:17:59.767Z,71.00
2018-08-17T17:20:33.153Z,72.30
2018-08-17T17:23:01.516Z,73.70
2018-08-17T17:25:29.682Z,75.90
2018-08-17T17:27:58.002Z,74.70
2018-08-17T17:30:34.520Z,73.60
2018-08-17T17:33:02.691Z,72.80
2018-08-17T17:35:31.383Z,73.80
2018-08-17T17:37:59.456Z,74.60
2018-08-17T17:40:27.536Z,78.70
2018-08-17T17:42:55.826Z,93.60
2018-08-17T17:45:23.167Z,94.70
2018-08-17T17:47:50.548Z,95.40
2018-08-17T17:50:17.860Z,95.40
2018-08-17T17:52:45.256Z,95.60
2018-08-17T17:55:12.600Z,95.50
2018-08-17T17:57:39.933Z,96.00
2018-08-17T18:00:07.324Z,97.60
2018-08-17T18:02:34.560Z,97.70
2018-08-17T18:05:01.944Z,98.10
2018-08-17T18:07:34.013Z,99.60
2018-08-17T18:10:01.761Z,99.90
2018-08-17T18:12:29.116Z,99.90
2018-08-17T18:14:56.449Z,99.90
2018-08-17T18:17:23.937Z,99.90
2018-08-17T18:19:52.710Z,99.90
2018-08-17T18:22:24.617Z,99.90
2018-08-17T18:24:52.536Z,99.90
2018-08-17T18:27:20.051Z,99.90
2018-08-17T18:29:47.348Z,99.90
2018-08-17T18:32:14.728Z,99.90
2018-08-17T18:34:42.083Z,99.90
2018-08-17T18:37:09.420Z,99.90
2018-08-17T18:39:36.811Z,99.90
2018-08-17T18:42:04.224Z,99.90
2018-08-17T18:44:31.603Z,99.90
2018-08-17T18:46:58.940Z,99.90
2018-08-17T18:49:26.325Z,99.90
2018-08-17T18:51:53.754Z,99.90
2018-08-17T18:54:21.235Z,99.90
2018-08-17T18:56:48.580Z,99.90
2018-08-17T18:59:16.042Z,99.90
2018-08-17T19:01:43.303Z,99.90
2018-08-17T19:04:10.688Z,99.90
2018-08-17T19:06:38.021Z,99.90
2018-08-17T19:09:06.580Z,99.90
2018-08-17T19:11:33.952Z,99.90
2018-08-17T19:14:01.297Z,99.90
2018-08-17T19:16:28.776Z,99.90
2018-08-17T19:18:56.123Z,99.90
2018-08-17T19:21:23.477Z,99.90
2018-08-17T19:23:50.848Z,99.90
2018-08-17T19:26:18.177Z,99.90
2018-08-17T19:28:50.087Z,99.90
2018-08-17T19:31:17.503Z,99.90
2018-08-17T19:33:44.879Z,99.90
2018-08-17T19:36:12.241Z,99.90
2018-08-17T19:38:41.617Z,99.90
2018-08-17T19:41:09.408Z,99.90
2018-08-17T19:43:37.053Z,99.90
2018-08-17T19:46:04.621Z,99.90
2018-08-17T19:48:31.820Z,99.90
2018-08-17T19:50:59.133Z,99.90
2018-08-17T19:53:26.580Z,99.90
2018-08-17T19:55:54.161Z,99.90
2018-08-17T19:58:21.635Z,99.90
2018-08-17T20:00:48.856Z,99.90
2018-08-17T20:03:16.272Z,99.90
2018-08-17T20:05:43.655Z,99.90
2018-08-17T20:08:11.053Z,99.90
2018-08-17T20:10:38.589Z,99.90
2018-08-17T20:13:05.967Z,99.90
2018-08-17T20:15:33.326Z,99.90
2018-08-17T20:18:00.752Z,99.90
2018-08-17T20:20:28.144Z,99.90
2018-08-17T20:22:57.716Z,99.90
2018-08-17T20:25:25.096Z,99.90
2018-08-17T20:27:52.513Z,99.90
2018-08-17T20:30:21.423Z,99.90
2018-08-17T20:32:48.827Z,99.90
2018-08-17T20:35:16.360Z,99.90
2018-08-17T20:37:45.154Z,99.90
2018-08-17T20:40:12.626Z,99.90
2018-08-17T20:42:40.052Z,99.90
2018-08-17T20:45:07.741Z,99.90
2018-08-17T20:47:35.680Z,99.90
2018-08-17T20:50:03.333Z,99.90
2018-08-17T20:52:30.733Z,99.90
2018-08-17T20:54:58.109Z,99.90
2018-08-17T20:57:25.461Z,99.90
2018-08-17T20:59:52.870Z,99.90
2018-08-17T21:02:20.251Z,99.90
2018-08-17T21:04:47.718Z,99.90
2018-08-17T21:07:15.048Z,99.90
2018-08-17T21:09:42.422Z,99.90
2018-08-17T21:12:09.855Z,99.90
2018-08-17T21:14:37.241Z,99.90
2018-08-17T21:17:04.569Z,99.90
2018-08-17T21:19:37.471Z,99.90
2018-08-17T21:22:04.813Z,99.90
2018-08-17T21:24:32.202Z,99.90
2018-08-17T21:26:59.637Z,99.90
2018-08-17T21:29:27.130Z,99.90
2018-08-17T21:31:54.359Z,99.90
2018-08-17T21:34:21.733Z,99.90
2018-08-17T21:36:49.381Z,99.90
2018-08-17T21:39:17.798Z,99.90
2018-08-17T21:41:46.318Z,99.90
2018-08-17T21:44:16.670Z,99.90
2018-08-17T21:46:49.083Z,99.90
2018-08-17T21:49:16.592Z,99.90
2018-08-17T21:51:43.966Z,99.90
2018-08-17T21:54:11.528Z,99.90
2018-08-17T22:12:05.278Z,99.90
2018-08-17T22:14:32.570Z,99.90
2018-08-17T22:17:00.014Z,99.90
2018-08-17T22:19:43.152Z,99.90
2018-08-17T22:25:58.444Z,99.90
2018-08-17T22:28:42.002Z,99.90
2018-08-17T22:31:40.520Z,99.90
2018-08-17T22:34:26.228Z,99.90
2018-08-17T22:37:01.124Z,99.90
2018-08-17T22:39:48.058Z,99.90
2018-08-17T22:42:21.684Z,99.90
2018-08-17T22:44:49.443Z,99.90
2018-08-17T22:47:18.835Z,99.90
2018-08-17T22:49:46.566Z,99.90
2018-08-17T22:52:13.987Z,99.90
2018-08-17T22:54:46.790Z,99.90
2018-08-17T23:03:54.622Z,99.90
2018-08-17T23:13:21.143Z,99.90
2018-08-17T23:15:48.755Z,99.90
2018-08-17T23:18:16.061Z,99.90
2018-08-17T23:20:43.387Z,99.90
2018-08-17T23:23:10.773Z,99.90
2018-08-17T23:25:38.107Z,99.90
2018-08-17T23:28:05.489Z,99.90
2018-08-17T23:30:32.853Z,99.90
2018-08-17T23:33:00.303Z,99.90
2018-08-17T23:35:27.647Z,99.90
2018-08-17T23:37:54.979Z,99.90
2018-08-17T23:40:22.493Z,99.90
2018-08-17T23:42:49.831Z,99.90
2018-08-17T23:45:17.767Z,99.90
2018-08-17T23:47:45.257Z,99.90
2018-08-17T23:50:13.711Z,99.90
2018-08-17T23:52:41.411Z,99.90
2018-08-17T23:55:10.269Z,99.90
2018-08-17T23:57:37.650Z,99.90
